Time;durP1;ratioP1;P1;durP2;ratioP2;P2;SDS_P1;SDS_P2;PMS_P1;PMS_P2;Temp;Humidity;BMP_temperature;BMP_pressure;BME280_temperature;BME280_humidity;BME280_pressure;Samples;Min_cycle;Max_cycle;Signal;HPM_P1;HPM_P2
2022/04/24 00:02:17;;;;;;;17.38;9.98;;;;;;;9.31;100.00;96934.78;6224670;22;20034;-91
2022/04/24 00:04:43;;;;;;;16.48;9.32;;;;;;;9.30;100.00;96942.88;6226176;22;20396;-91
2022/04/24 00:07:09;;;;;;;12.88;6.65;;;;;;;9.44;100.00;96956.19;6250458;22;20015;-91
2022/04/24 00:09:36;;;;;;;14.23;5.65;;;;;;;9.32;100.00;96938.31;6250606;22;20007;-90
2022/04/24 00:12:01;;;;;;;8.43;5.28;;;;;;;9.17;100.00;96948.19;6225991;22;20012;-90
2022/04/24 00:14:27;;;;;;;11.57;6.00;;;;;;;9.12;100.00;96947.63;6225632;22;20051;-90
2022/04/24 00:16:53;;;;;;;9.43;5.63;;;;;;;8.96;100.00;96939.78;6226027;22;20014;-90
2022/04/24 00:19:19;;;;;;;9.50;5.80;;;;;;;9.13;100.00;96958.22;6225548;22;20004;-89
2022/04/24 00:21:45;;;;;;;8.77;5.03;;;;;;;9.06;100.00;96950.72;6226042;22;20008;-90
2022/04/24 00:24:11;;;;;;;8.27;5.78;;;;;;;8.99;100.00;96952.91;6225886;22;20491;-90
2022/04/24 00:26:38;;;;;;;11.32;5.63;;;;;;;9.02;100.00;96959.84;6226015;22;20008;-90
2022/04/24 00:29:03;;;;;;;9.30;4.63;;;;;;;8.84;100.00;96940.56;6226496;22;20090;-91
2022/04/24 00:31:29;;;;;;;10.00;5.30;;;;;;;8.84;100.00;96951.25;6225790;22;20003;-90
2022/04/24 00:33:55;;;;;;;11.68;5.07;;;;;;;8.85;100.00;96952.97;6229383;22;20344;-88
2022/04/24 00:36:20;;;;;;;6.88;4.53;;;;;;;8.72;100.00;96941.38;6232183;22;20027;-90
2022/04/24 00:38:46;;;;;;;8.73;4.75;;;;;;;8.73;100.00;96948.44;6232546;22;20086;-92
2022/04/24 00:41:11;;;;;;;14.48;5.30;;;;;;;8.67;100.00;96931.00;6232891;22;20031;-92
2022/04/24 00:43:37;;;;;;;10.45;5.03;;;;;;;8.85;100.00;96952.97;6234094;22;20067;-91
2022/04/24 00:46:13;;;;;;;11.13;5.15;;;;;;;8.89;100.00;96954.47;6232536;22;20004;-90
2022/04/24 00:48:40;;;;;;;9.82;5.35;;;;;;;8.73;100.00;96951.09;6233058;22;20067;-89
2022/04/24 00:51:07;;;;;;;7.88;5.10;;;;;;;8.56;100.00;96935.31;6232272;22;20436;-89
2022/04/24 00:53:32;;;;;;;10.77;5.80;;;;;;;8.65;100.00;96945.38;6256794;22;20023;-90
2022/04/24 00:55:58;;;;;;;12.20;5.80;;;;;;;8.65;100.00;96948.03;6253501;22;20034;-90
2022/04/24 00:58:24;;;;;;;9.63;5.82;;;;;;;8.63;100.00;96947.28;6226919;22;20007;-90
2022/04/24 01:00:50;;;;;;;13.35;5.35;;;;;;;8.71;100.00;96960.97;6226801;22;20051;-91
2022/04/24 01:03:15;;;;;;;11.68;6.00;;;;;;;8.69;100.00;96946.91;6226983;22;20031;-90
2022/04/24 01:05:41;;;;;;;13.20;6.63;;;;;;;8.62;100.00;96946.44;6226160;22;20007;-88
2022/04/24 01:08:20;;;;;;;13.32;5.90;;;;;;;8.65;100.00;96956.03;6226835;22;20320;-90
2022/04/24 01:10:45;;;;;;;15.52;6.25;;;;;;;8.62;100.00;96940.25;6227164;22;20137;-89
2022/04/24 01:13:11;;;;;;;12.30;5.93;;;;;;;8.62;100.00;96956.22;6226068;22;20000;-90
2022/04/24 01:15:36;;;;;;;14.13;6.55;;;;;;;8.56;100.00;96940.63;6225151;22;20027;-89
2022/04/24 01:18:02;;;;;;;10.60;6.30;;;;;;;8.47;100.00;96946.53;6226436;22;20030;-90
2022/04/24 01:20:28;;;;;;;10.90;5.85;;;;;;;8.58;100.00;96960.06;6226984;22;20008;-91
2022/04/24 01:22:53;;;;;;;15.35;6.13;;;;;;;8.45;100.00;96953.78;6225808;22;20008;-89
2022/04/24 01:25:19;;;;;;;10.50;6.10;;;;;;;8.52;100.00;96955.97;6225855;22;20013;-89
2022/04/24 01:27:45;;;;;;;10.68;5.85;;;;;;;8.44;100.00;96949.41;6251891;22;20065;-89
2022/04/24 01:30:10;;;;;;;10.82;5.40;;;;;;;8.38;100.00;96947.13;6251754;22;20478;-91
2022/04/24 01:32:38;;;;;;;8.85;5.35;;;;;;;8.42;100.00;96969.97;6225649;22;20000;-88
2022/04/24 01:35:06;;;;;;;8.70;5.45;;;;;;;8.38;100.00;96971.09;6226006;22;20084;-91
2022/04/24 01:37:32;;;;;;;8.57;5.22;;;;;;;8.28;100.00;96952.16;6227046;22;20031;-91
2022/04/24 01:39:57;;;;;;;10.98;5.20;;;;;;;8.40;100.00;96977.22;6228321;22;20003;-89
2022/04/24 01:42:24;;;;;;;8.38;5.47;;;;;;;8.29;100.00;96969.03;6227829;22;20007;-90
2022/04/24 01:44:50;;;;;;;7.15;4.63;;;;;;;8.22;100.00;96967.66;6228431;22;20045;-90
2022/04/24 01:47:15;;;;;;;9.48;4.53;;;;;;;8.23;100.00;96978.22;6228329;22;20359;-91
2022/04/24 01:49:41;;;;;;;6.60;4.40;;;;;;;8.24;100.00;96974.63;6227785;22;20003;-91
2022/04/24 01:52:07;;;;;;;9.20;4.63;;;;;;;8.23;100.00;96972.91;6253627;22;20007;-90
2022/04/24 01:54:33;;;;;;;7.25;4.47;;;;;;;8.18;100.00;96975.81;6252806;22;20004;-90
2022/04/24 01:56:59;;;;;;;5.97;4.13;;;;;;;8.18;100.00;96967.84;6228382;22;20014;-91
2022/04/24 01:59:25;;;;;;;9.88;4.38;;;;;;;8.13;100.00;96975.25;6229086;22;20011;-90
2022/04/24 02:01:51;;;;;;;7.38;4.63;;;;;;;7.91;100.00;96964.19;6228290;22;20016;-90
2022/04/24 02:04:19;;;;;;;7.75;4.53;;;;;;;7.92;100.00;96979.25;6229021;22;20008;-91
2022/04/24 02:07:11;;;;;;;10.13;4.90;;;;;;;7.89;100.00;96970.56;6229429;22;19999;-90
2022/04/24 02:09:39;;;;;;;10.18;4.47;;;;;;;7.72;100.00;96958.28;6254514;22;20003;-91
2022/04/24 02:12:05;;;;;;;6.03;4.07;;;;;;;7.77;100.00;96953.53;6228201;22;20010;-91
2022/04/24 02:14:30;;;;;;;5.80;3.97;;;;;;;7.88;100.00;96967.06;6228205;22;20008;-90
2022/04/24 02:16:57;;;;;;;5.28;3.70;;;;;;;7.69;100.00;96961.13;6227434;22;20066;-89
2022/04/24 02:19:22;;;;;;;9.15;4.10;;;;;;;7.83;100.00;96963.81;6227641;22;20008;-90
2022/04/24 02:21:48;;;;;;;8.23;4.38;;;;;;;7.92;100.00;96960.59;6228014;22;20083;-90
2022/04/24 02:24:13;;;;;;;11.32;4.70;;;;;;;7.90;100.00;96967.84;6227350;22;20019;-91
2022/04/24 02:26:39;;;;;;;10.50;4.03;;;;;;;7.66;100.00;96948.00;6253404;22;20074;-90
2022/04/24 02:29:05;;;;;;;7.13;4.32;;;;;;;7.71;100.00;96961.03;6228246;22;19999;-91
2022/04/24 02:31:30;;;;;;;10.45;4.68;;;;;;;7.72;100.00;96958.28;6227296;22;20008;-90
2022/04/24 02:33:56;;;;;;;6.15;4.07;;;;;;;7.76;100.00;96964.28;6227656;22;20000;-91
2022/04/24 02:36:21;;;;;;;5.68;4.22;;;;;;;7.64;100.00;96950.75;6227650;22;20039;-89
2022/04/24 02:38:47;;;;;;;9.27;4.35;;;;;;;7.75;100.00;96966.09;6226660;22;20008;-89
2022/04/24 02:41:12;;;;;;;6.13;4.25;;;;;;;7.82;100.00;96963.91;6226410;22;20004;-90
2022/04/24 02:43:38;;;;;;;5.93;4.10;;;;;;;7.91;100.00;96972.19;6226985;22;20003;-90
2022/04/24 02:46:03;;;;;;;8.45;5.25;;;;;;;7.94;100.00;96973.81;6227766;22;20007;-90
2022/04/24 02:48:29;;;;;;;9.02;5.60;;;;;;;7.91;100.00;96972.19;6226724;22;20087;-90
2022/04/24 02:50:55;;;;;;;7.00;4.70;;;;;;;7.79;100.00;96974.72;6226290;22;20090;-88
2022/04/24 02:53:20;;;;;;;7.97;5.10;;;;;;;7.70;100.00;96981.47;6226517;22;20086;-90
2022/04/24 02:55:46;;;;;;;7.28;4.72;;;;;;;7.69;100.00;96974.41;6227190;22;20038;-89
2022/04/24 02:58:11;;;;;;;7.25;4.70;;;;;;;7.59;100.00;96960.84;6227214;22;20003;-90
2022/04/24 03:00:42;;;;;;;7.47;4.90;;;;;;;7.62;100.00;96983.75;6226202;22;20459;-89
2022/04/24 03:03:08;;;;;;;12.07;4.40;;;;;;;7.73;100.00;96986.59;6226896;22;20007;-90
2022/04/24 03:05:34;;;;;;;12.68;4.95;;;;;;;7.66;100.00;96990.56;6226862;22;20403;-90
2022/04/24 03:08:00;;;;;;;7.47;4.97;;;;;;;7.69;100.00;96989.56;6227044;22;20004;-89
2022/04/24 03:10:25;;;;;;;10.60;4.80;;;;;;;7.75;100.00;96979.41;6227242;22;20519;-89
2022/04/24 03:12:51;;;;;;;8.52;4.50;;;;;;;7.77;100.00;96982.81;6226478;22;20010;-89
2022/04/24 03:15:17;;;;;;;11.63;4.95;;;;;;;7.73;100.00;96973.31;6226834;22;20025;-88
2022/04/24 03:17:43;;;;;;;7.70;4.07;;;;;;;7.61;100.00;96966.06;6226663;22;20042;-88
2022/04/24 03:20:10;;;;;;;13.95;5.10;;;;;;;7.77;100.00;96985.50;6226212;22;20015;-89
2022/04/24 03:22:36;;;;;;;10.85;4.80;;;;;;;7.72;100.00;96978.72;6252157;22;20011;-89
2022/04/24 03:25:04;;;;;;;15.18;5.25;;;;;;;7.68;100.00;96987.84;6227310;22;20012;-89
2022/04/24 03:27:29;;;;;;;8.73;4.88;;;;;;;7.63;100.00;96983.63;6226484;22;20079;-88
2022/04/24 03:29:55;;;;;;;17.38;5.10;;;;;;;7.68;100.00;96996.69;6201384;22;20007;-89
2022/04/24 03:32:21;;;;;;;17.40;5.25;;;;;;;7.63;100.00;96996.94;6227285;22;20107;-89
2022/04/24 03:34:47;;;;;;;10.77;5.30;;;;;;;7.35;100.00;96974.72;6226265;22;20011;-89
2022/04/24 03:37:12;;;;;;;20.60;12.10;;;;;;;7.36;100.00;96990.59;6225596;22;20011;-88
2022/04/24 03:39:38;;;;;;;21.23;10.00;;;;;;;7.31;100.00;96984.69;6225729;22;20010;-90
2022/04/24 03:42:05;;;;;;;20.20;10.25;;;;;;;7.30;100.00;96995.41;6225996;22;20439;-89
2022/04/24 03:44:32;;;;;;;20.88;11.85;;;;;;;7.30;100.00;97009.56;6226246;22;20004;-89
2022/04/24 03:46:58;;;;;;;23.17;11.88;;;;;;;7.27;100.00;96982.28;6252315;22;20030;-88
2022/04/24 03:49:25;;;;;;;22.23;10.07;;;;;;;7.39;100.00;97013.47;6226494;22;20379;-88
2022/04/24 03:51:51;;;;;;;15.48;9.63;;;;;;;7.36;100.00;97006.53;6226446;22;20467;-89
2022/04/24 03:54:17;;;;;;;15.65;9.00;;;;;;;7.25;100.00;96998.34;6225987;22;20000;-89
2022/04/24 03:56:42;;;;;;;15.40;8.30;;;;;;;7.31;100.00;96997.13;6226275;22;20347;-89
2022/04/24 03:59:08;;;;;;;15.18;7.82;;;;;;;7.34;100.00;97002.25;6226608;22;20027;-89
2022/04/24 04:01:42;;;;;;;12.45;6.90;;;;;;;7.30;100.00;96998.91;6201571;22;20015;-90
2022/04/24 04:04:08;;;;;;;17.10;7.65;;;;;;;7.38;100.00;97011.78;6225567;22;20010;-89
2022/04/24 04:06:46;;;;;;;13.98;7.38;;;;;;;7.40;100.00;96993.94;5148691;27;20373;-90
2022/04/24 04:09:12;;;;;;;8.65;5.60;;;;;;;7.46;100.00;96990.91;5114959;28;20031;-90
2022/04/24 04:11:37;;;;;;;14.57;6.10;;;;;;;7.42;100.00;97005.31;5115119;28;20474;-91
2022/04/24 04:14:03;;;;;;;15.90;6.93;;;;;;;7.42;100.00;96992.88;5116351;28;20087;-91
2022/04/24 04:16:29;;;;;;;17.00;8.05;;;;;;;7.50;100.00;96995.13;5115749;28;20448;-91
2022/04/24 04:18:55;;;;;;;23.27;7.90;;;;;;;7.50;100.00;96985.34;5116173;28;20034;-90
2022/04/24 04:21:20;;;;;;;17.65;9.07;;;;;;;7.94;100.00;97000.44;5115955;28;20035;-91
2022/04/24 04:23:46;;;;;;;17.73;9.68;;;;;;;8.45;100.00;97004.44;5132493;27;20038;-91
2022/04/24 04:26:11;;;;;;;18.63;9.02;;;;;;;8.59;100.00;97005.28;5115030;28;20024;-90
2022/04/24 04:28:37;;;;;;;19.65;8.35;;;;;;;8.48;100.00;97025.56;5116273;28;20065;-92
2022/04/24 04:31:03;;;;;;;20.77;10.57;;;;;;;7.99;100.00;96964.63;5114780;28;20519;-91
2022/04/24 04:33:28;;;;;;;20.40;9.52;;;;;;;8.22;100.00;97024.44;5115628;28;20032;-92
2022/04/24 04:35:54;;;;;;;29.10;11.00;;;;;;;8.22;100.00;97019.13;5116763;28;20038;-91
2022/04/24 04:38:20;;;;;;;20.65;10.23;;;;;;;8.45;100.00;97033.75;5117484;28;20023;-92
2022/04/24 04:40:45;;;;;;;19.85;10.18;;;;;;;8.39;100.00;97020.78;5115359;28;20031;-91
2022/04/24 04:43:11;;;;;;;25.20;11.82;;;;;;;8.53;100.00;97010.13;5113962;28;20029;-92
2022/04/24 04:45:37;;;;;;;30.30;15.93;;;;;;;8.63;100.00;97013.94;5115281;28;20471;-92
2022/04/24 04:48:03;;;;;;;41.55;18.30;;;;;;;8.89;100.00;97026.47;5113887;28;20023;-83
2022/04/24 04:50:28;;;;;;;37.10;18.85;;;;;;;8.90;100.00;97012.19;5109920;28;20027;-83
2022/04/24 04:52:54;;;;;;;30.33;16.42;;;;;;;9.10;100.00;97017.13;5128067;27;20122;-83
2022/04/24 04:55:20;;;;;;;36.65;16.75;;;;;;;9.20;100.00;97009.34;5109327;28;20130;-85
2022/04/24 04:57:47;;;;;;;37.83;19.88;;;;;;;9.18;100.00;97001.44;5109787;28;20542;-83
2022/04/24 05:00:13;;;;;;;25.50;14.65;;;;;;;9.66;100.00;97032.06;5110898;28;20119;-78
2022/04/24 05:02:40;;;;;;;32.88;15.70;;;;;;;9.98;100.00;97032.56;5127709;28;20058;-84
2022/04/24 05:05:07;;;;;;;32.22;16.20;;;;;;;10.32;100.00;97026.66;5110521;28;20119;-86
2022/04/24 05:07:33;;;;;;;33.65;16.67;;;;;;;10.58;100.00;97015.97;5111196;28;20069;-82
2022/04/24 05:09:58;;;;;;;27.92;15.93;;;;;;;10.87;100.00;97017.41;5108971;28;20542;-83
2022/04/24 05:12:27;;;;;;;26.40;14.45;;;;;;;11.27;98.20;97008.22;5111247;28;20023;-82
2022/04/24 05:14:58;;;;;;;24.38;14.10;;;;;;;12.35;91.25;97018.78;5125973;28;20384;-82
2022/04/24 05:17:24;;;;;;;29.05;15.25;;;;;;;13.03;87.00;97034.84;5099778;28;20034;-82
2022/04/24 05:19:50;;;;;;;21.30;12.50;;;;;;;13.61;82.47;97043.56;5112616;28;20040;-81
2022/04/24 05:22:15;;;;;;;19.73;12.70;;;;;;;13.84;79.62;97029.09;5113539;28;20027;-81
2022/04/24 05:24:41;;;;;;;25.00;15.30;;;;;;;14.91;75.45;97018.97;5095513;28;20032;-81
2022/04/24 05:27:07;;;;;;;25.25;15.30;;;;;;;16.10;67.72;97020.69;5094786;28;20122;-80
2022/04/24 05:29:32;;;;;;;29.50;18.42;;;;;;;16.35;65.06;97016.56;5112806;27;20031;-81
2022/04/24 05:31:58;;;;;;;30.77;16.95;;;;;;;17.21;61.12;97019.09;5094562;28;20767;-82
2022/04/24 05:34:23;;;;;;;28.50;16.58;;;;;;;19.07;55.77;97004.69;5096921;28;20088;-83
2022/04/24 05:36:49;;;;;;;24.40;14.70;;;;;;;20.24;52.32;96988.28;5111668;28;20032;-81
2022/04/24 05:39:14;;;;;;;25.67;12.57;;;;;;;21.82;48.09;96986.66;5101421;28;20045;-81
2022/04/24 05:41:40;;;;;;;22.75;12.00;;;;;;;22.64;44.79;96984.03;5097010;27;20926;-80
2022/04/24 05:44:05;;;;;;;19.95;10.02;;;;;;;22.92;44.00;96989.78;5113012;27;20521;-80
2022/04/24 05:46:31;;;;;;;11.98;8.60;;;;;;;24.06;41.54;96975.63;5095261;28;20055;-81
2022/04/24 05:48:58;;;;;;;12.40;7.72;;;;;;;23.51;42.10;96981.66;5112736;28;20102;-81
2022/04/24 05:51:24;;;;;;;12.07;7.70;;;;;;;23.52;42.49;96994.28;5095112;27;20027;-79
2022/04/24 05:53:50;;;;;;;12.82;7.75;;;;;;;23.38;42.37;96992.38;5115235;27;20520;-82
2022/04/24 05:56:15;;;;;;;19.00;12.05;;;;;;;23.94;41.50;96994.41;5094556;28;20031;-79
2022/04/24 05:58:41;;;;;;;22.88;12.75;;;;;;;24.08;41.20;96982.63;5110114;28;20062;-79
2022/04/24 06:01:06;;;;;;;24.92;13.20;;;;;;;24.56;40.83;96983.78;5111307;27;20475;-79
2022/04/24 06:03:32;;;;;;;20.02;13.68;;;;;;;25.13;39.34;96975.44;5110994;27;20773;-83
2022/04/24 06:05:57;;;;;;;20.48;11.95;;;;;;;25.46;39.17;96974.81;5112211;27;20127;-84
2022/04/24 06:08:23;;;;;;;19.40;10.50;;;;;;;25.92;38.00;96964.94;5112924;28;20106;-83
2022/04/24 06:10:48;;;;;;;15.93;9.43;;;;;;;25.44;38.75;96974.19;5114107;27;20114;-83
2022/04/24 06:13:14;;;;;;;19.52;8.55;;;;;;;26.68;36.90;96971.91;5094780;28;20031;-82
2022/04/24 06:15:39;;;;;;;20.80;8.95;;;;;;;27.42;35.61;96964.31;5111816;28;20052;-84
2022/04/24 06:18:05;;;;;;;14.15;8.15;;;;;;;27.69;34.85;96953.25;5095121;28;20036;-85
2022/04/24 06:20:31;;;;;;;14.70;9.15;;;;;;;26.73;36.49;96957.56;5111789;28;20479;-83
2022/04/24 06:23:00;;;;;;;13.35;6.88;;;;;;;26.88;36.22;96950.84;5094577;28;20088;-81
2022/04/24 06:25:31;;;;;;;12.07;6.18;;;;;;;26.75;36.10;96949.97;5110995;28;20028;-82
2022/04/24 06:27:57;;;;;;;17.05;7.88;;;;;;;28.06;34.75;96946.97;5111223;28;20023;-82
2022/04/24 06:30:24;;;;;;;9.35;5.03;;;;;;;27.29;34.52;96946.97;5111226;28;20034;-80
2022/04/24 06:32:50;;;;;;;10.07;5.18;;;;;;;27.62;34.95;96947.78;5094522;28;20032;-79
2022/04/24 06:35:17;;;;;;;8.27;5.80;;;;;;;27.25;35.20;96941.09;5094481;28;20024;-79
2022/04/24 06:37:45;;;;;;;14.13;6.20;;;;;;;25.60;37.46;96954.69;5094119;28;20020;-79
2022/04/24 06:40:13;;;;;;;14.65;7.50;;;;;;;25.99;38.06;96957.59;5093958;28;20434;-80
2022/04/24 06:42:54;;;;;;;17.25;9.32;;;;;;;27.05;36.72;96956.75;5093862;28;20031;-80
2022/04/24 06:45:25;;;;;;;20.95;11.50;;;;;;;27.50;35.94;96951.41;5109346;28;20023;-79
2022/04/24 06:47:55;;;;;;;31.20;14.43;;;;;;;27.68;35.76;96948.81;5091400;28;20035;-79
2022/04/24 06:50:22;;;;;;;33.35;20.38;;;;;;;28.67;34.31;96951.97;5110223;28;20054;-79
2022/04/24 06:53:05;;;;;;;24.35;18.65;;;;;;;29.09;33.76;96934.66;5110386;28;20119;-79
2022/04/24 06:55:32;;;;;;;34.25;17.58;;;;;;;29.55;33.34;96934.19;5093111;28;20482;-79
2022/04/24 06:57:58;;;;;;;20.73;13.82;;;;;;;29.92;33.03;96935.06;5093391;28;20115;-79
2022/04/24 07:00:26;;;;;;;17.92;9.23;;;;;;;30.20;31.87;96921.53;5093492;28;20023;-79
2022/04/24 07:02:51;;;;;;;19.48;9.77;;;;;;;30.40;32.05;96922.09;5110628;28;20106;-79
2022/04/24 07:05:20;;;;;;;18.90;9.95;;;;;;;29.79;32.80;96926.91;5110284;28;20118;-81
2022/04/24 07:07:45;;;;;;;20.85;8.77;;;;;;;30.49;32.04;96915.16;5092269;28;20043;-77
2022/04/24 07:10:11;;;;;;;9.48;3.78;;;;;;;30.21;31.89;96911.34;5110322;28;20088;-78
2022/04/24 07:12:53;;;;;;;12.63;4.70;;;;;;;30.44;31.81;96900.38;5109903;28;20489;-79
2022/04/24 07:15:20;;;;;;;10.82;5.13;;;;;;;31.00;31.04;96914.59;5110199;28;20019;-78
2022/04/24 07:17:46;;;;;;;9.85;2.92;;;;;;;30.69;31.50;96902.97;5092994;28;20034;-79
2022/04/24 07:20:15;;;;;;;7.38;3.03;;;;;;;30.87;30.81;96900.13;5110324;28;20019;-79
2022/04/24 07:22:47;;;;;;;6.53;3.22;;;;;;;31.35;31.20;96897.19;5110188;28;20035;-79
2022/04/24 07:25:14;;;;;;;11.40;3.47;;;;;;;31.81;30.41;96893.50;5111292;27;20022;-80
2022/04/24 07:27:40;;;;;;;8.43;3.15;;;;;;;32.51;29.35;96892.16;5110007;28;20047;-79
2022/04/24 07:30:13;;;;;;;11.50;4.50;;;;;;;32.18;30.18;96876.28;5110131;28;20467;-80
2022/04/24 07:32:53;;;;;;;11.02;5.45;;;;;;;32.41;30.35;96889.19;5093819;28;20486;-79
2022/04/24 07:35:24;;;;;;;24.48;8.65;;;;;;;32.54;30.10;96885.28;5093086;28;20084;-79
2022/04/24 07:37:49;;;;;;;14.73;8.88;;;;;;;31.36;31.68;96888.63;5093148;28;20035;-80
2022/04/24 07:40:17;;;;;;;16.20;8.20;;;;;;;32.46;30.64;96886.50;5109859;28;20070;-80
2022/04/24 07:42:59;;;;;;;18.20;6.72;;;;;;;33.22;29.43;96882.31;5109565;28;20118;-79
2022/04/24 07:45:27;;;;;;;15.05;6.45;;;;;;;33.05;30.48;96887.00;5110365;28;20031;-79
2022/04/24 07:47:54;;;;;;;17.70;4.40;;;;;;;33.63;29.13;96873.50;5110937;28;20412;-79
2022/04/24 07:50:24;;;;;;;15.25;5.40;;;;;;;33.95;29.16;96872.81;5109801;28;20123;-79
2022/04/24 07:52:51;;;;;;;8.70;3.05;;;;;;;34.51;27.93;96866.81;5092980;28;20027;-78
2022/04/24 07:55:19;;;;;;;10.32;4.60;;;;;;;33.58;28.51;96865.09;5109876;28;20051;-78
2022/04/24 07:57:46;;;;;;;9.40;3.42;;;;;;;35.06;27.79;96868.41;5109110;28;20093;-78
2022/04/24 08:00:13;;;;;;;13.32;5.00;;;;;;;36.04;26.67;96866.78;5090559;28;20031;-80
2022/04/24 08:02:57;;;;;;;10.10;3.83;;;;;;;35.74;23.65;96840.50;5108407;28;20475;-81
2022/04/24 08:05:40;;;;;;;6.57;2.60;;;;;;;34.68;24.55;96830.56;5104854;28;20039;-84
2022/04/24 08:08:22;;;;;;;8.85;2.15;;;;;;;31.85;26.32;96836.56;5093966;28;20032;-77
2022/04/24 08:10:50;;;;;;;6.03;1.90;;;;;;;30.67;27.88;96828.63;5095683;28;20015;-80
2022/04/24 08:13:19;;;;;;;5.68;1.60;;;;;;;30.79;26.61;96826.75;5125290;27;20457;-79
2022/04/24 08:15:46;;;;;;;4.20;1.65;;;;;;;29.94;27.90;96812.38;5109190;28;20030;-79
2022/04/24 08:18:12;;;;;;;4.82;1.58;;;;;;;30.05;28.01;96819.84;5092733;28;20143;-82
2022/04/24 08:20:39;;;;;;;8.43;3.08;;;;;;;29.91;28.35;96815.59;5093434;28;20031;-84
2022/04/24 08:23:05;;;;;;;7.82;2.40;;;;;;;29.86;28.88;96809.09;5096945;28;20054;-91
2022/04/24 08:25:34;;;;;;;5.80;2.20;;;;;;;31.30;26.49;96805.81;5095396;28;20023;-84
2022/04/24 08:28:04;;;;;;;9.40;2.50;;;;;;;32.42;26.31;96813.34;5095472;28;20035;-83
2022/04/24 08:30:30;;;;;;;3.92;2.10;;;;;;;31.84;26.67;96793.41;5094039;28;20023;-81
2022/04/24 08:32:56;;;;;;;6.25;2.78;;;;;;;32.00;26.04;96804.50;5110159;28;20520;-82
2022/04/24 08:35:21;;;;;;;20.23;6.32;;;;;;;32.30;25.13;96782.13;5107315;28;20063;-81
2022/04/24 08:37:48;;;;;;;5.50;2.67;;;;;;;32.07;25.48;96801.63;5093144;28;20497;-82
2022/04/24 08:40:14;;;;;;;18.73;8.45;;;;;;;31.68;25.78;96792.28;5092226;28;20036;-82
2022/04/24 08:42:41;;;;;;;4.68;1.67;;;;;;;31.93;25.77;96791.94;5093374;28;20067;-86
2022/04/24 08:45:10;;;;;;;3.00;1.70;;;;;;;31.96;25.83;96789.47;5094697;28;20027;-87
2022/04/24 08:47:35;;;;;;;4.20;1.63;;;;;;;30.57;26.99;96782.31;5113294;28;20036;-79
2022/04/24 08:50:01;;;;;;;7.15;1.70;;;;;;;31.31;26.55;96786.22;5106554;28;20032;-76
2022/04/24 08:52:28;;;;;;;5.05;1.95;;;;;;;32.18;25.16;96793.25;5110250;28;20020;-81
2022/04/24 08:54:55;;;;;;;4.32;1.90;;;;;;;32.54;24.91;96783.63;5113853;28;20028;-81
2022/04/24 08:57:30;;;;;;;6.03;2.00;;;;;;;31.10;26.51;96768.34;5113573;28;20032;-83
2022/04/24 09:00:00;;;;;;;4.07;1.50;;;;;;;31.51;26.19;96789.44;5097901;28;20028;-78
2022/04/24 09:02:26;;;;;;;6.95;1.92;;;;;;;31.39;25.95;96768.41;5094981;28;20038;-82
2022/04/24 09:04:53;;;;;;;5.35;1.63;;;;;;;31.85;25.85;96793.16;5113137;28;20047;-81
2022/04/24 09:07:19;;;;;;;3.90;1.48;;;;;;;32.42;24.11;96770.97;5113475;28;20081;-81
2022/04/24 09:09:49;;;;;;;6.25;2.30;;;;;;;33.71;23.63;96764.84;5113081;28;20054;-81
2022/04/24 09:12:17;;;;;;;8.43;1.65;;;;;;;34.77;22.47;96763.09;5112244;28;20104;-79
2022/04/24 09:14:49;;;;;;;7.22;2.13;;;;;;;35.29;21.76;96776.22;5113289;28;20508;-82
2022/04/24 09:17:22;;;;;;;7.40;2.28;;;;;;;35.08;23.06;96763.28;5110395;28;20042;-80
2022/04/24 09:19:49;;;;;;;2.65;1.35;;;;;;;34.93;21.47;96764.03;5111503;28;20031;-80
2022/04/24 09:22:15;;;;;;;7.00;1.50;;;;;;;35.42;21.54;96756.25;5092713;28;20474;-81
2022/04/24 09:24:45;;;;;;;6.22;2.20;;;;;;;36.28;21.17;96759.34;5118828;27;20079;-80
2022/04/24 09:27:12;;;;;;;6.97;2.00;;;;;;;35.72;21.59;96736.91;5097453;28;20119;-80
2022/04/24 09:29:40;;;;;;;11.95;2.25;;;;;;;35.55;21.59;96747.41;5094925;28;20032;-81
2022/04/24 09:32:11;;;;;;;4.35;1.95;;;;;;;36.02;21.49;96743.69;5095022;28;20074;-80
2022/04/24 09:34:37;;;;;;;4.80;1.92;;;;;;;37.23;20.32;96736.16;5094771;28;20027;-78
2022/04/24 09:37:05;;;;;;;6.00;2.22;;;;;;;37.15;20.49;96739.53;5109645;28;20024;-79
2022/04/24 09:39:32;;;;;;;8.20;3.28;;;;;;;36.20;20.99;96732.88;5111841;28;20020;-79
2022/04/24 09:42:08;;;;;;;8.73;1.88;;;;;;;35.32;21.55;96734.78;5112515;28;20063;-80
2022/04/24 09:44:37;;;;;;;3.47;1.65;;;;;;;34.84;21.20;96726.72;5113411;28;20531;-79
2022/04/24 09:47:04;;;;;;;2.85;1.17;;;;;;;34.85;20.85;96725.63;5112193;28;20060;-79
2022/04/24 09:49:37;;;;;;;6.15;1.75;;;;;;;35.07;20.98;96722.69;5111780;28;20077;-80
2022/04/24 09:52:13;;;;;;;7.72;1.80;;;;;;;36.03;20.87;96712.75;5094987;28;20027;-79
2022/04/24 09:54:49;;;;;;;6.03;1.90;;;;;;;35.88;20.30;96708.00;5111867;28;20114;-80
2022/04/24 09:57:16;;;;;;;5.50;1.60;;;;;;;35.98;20.25;96723.06;5094877;28;20490;-79
2022/04/24 09:59:46;;;;;;;5.25;2.13;;;;;;;36.01;20.05;96708.56;5112068;28;20050;-79
2022/04/24 10:02:13;;;;;;;3.70;1.38;;;;;;;35.90;20.26;96704.97;5112009;28;20498;-79
2022/04/24 10:04:39;;;;;;;2.15;1.50;;;;;;;35.50;19.95;96700.06;5092786;28;20482;-79
2022/04/24 10:07:06;;;;;;;7.07;1.90;;;;;;;36.08;20.08;96701.66;5111824;28;20030;-77
2022/04/24 10:09:36;;;;;;;3.92;1.50;;;;;;;36.64;19.54;96705.28;5111667;28;20416;-79
2022/04/24 10:12:07;;;;;;;3.58;1.42;;;;;;;36.51;19.80;96703.06;5112012;28;20068;-79
2022/04/24 10:14:55;;;;;;;3.00;1.63;;;;;;;36.86;19.53;96694.66;5111963;28;20047;-80
2022/04/24 10:17:49;;;;;;;4.47;1.60;;;;;;;36.72;19.31;96693.56;5110531;28;20024;-79
2022/04/24 10:20:26;;;;;;;7.53;2.63;;;;;;;37.41;19.40;96685.28;5107657;28;20098;-78
2022/04/24 10:22:57;;;;;;;6.78;1.98;;;;;;;38.10;18.29;96683.50;5113187;28;20027;-81
2022/04/24 10:25:52;;;;;;;5.03;1.92;;;;;;;37.40;19.03;96669.66;5111760;28;20471;-80
2022/04/24 10:28:19;;;;;;;3.63;1.50;;;;;;;36.06;19.94;96664.88;5087591;28;20036;-81
2022/04/24 10:30:58;;;;;;;6.82;1.88;;;;;;;35.71;20.22;96660.09;5094238;28;20088;-80
2022/04/24 10:33:28;;;;;;;10.48;2.10;;;;;;;36.21;19.26;96661.28;5093871;28;20070;-81
2022/04/24 10:36:20;;;;;;;4.07;1.45;;;;;;;37.86;18.05;96656.28;5093709;28;20042;-81
2022/04/24 10:38:56;;;;;;;2.95;1.73;;;;;;;36.90;19.04;96642.78;5099094;28;20092;-81
2022/04/24 10:41:23;;;;;;;4.43;1.95;;;;;;;37.28;19.06;96646.84;5111900;28;20505;-81
2022/04/24 10:43:54;;;;;;;7.20;1.52;;;;;;;37.17;19.08;96641.56;5093996;28;20032;-81
2022/04/24 10:46:33;;;;;;;6.90;2.10;;;;;;;36.74;19.14;96648.66;5110853;28;20028;-81
2022/04/24 10:49:17;;;;;;;9.93;2.10;;;;;;;36.54;19.50;96649.56;5093838;28;20030;-81
2022/04/24 10:51:44;;;;;;;7.68;1.90;;;;;;;36.86;19.58;96636.09;5093995;28;20425;-81
2022/04/24 10:54:13;;;;;;;7.05;2.53;;;;;;;37.28;19.14;96640.41;5093901;28;20514;-81
2022/04/24 10:56:50;;;;;;;7.95;1.98;;;;;;;37.83;18.72;96637.31;5110797;28;20479;-81
2022/04/24 10:59:20;;;;;;;5.03;1.55;;;;;;;38.26;18.17;96631.97;5093959;28;20034;-81
2022/04/24 11:01:51;;;;;;;6.88;1.90;;;;;;;39.40;18.01;96639.44;5110684;28;20086;-80
2022/04/24 11:04:18;;;;;;;4.63;1.77;;;;;;;38.29;18.73;96636.97;5093165;28;20038;-80
2022/04/24 11:07:04;;;;;;;5.82;1.65;;;;;;;37.72;19.16;96644.09;5111307;28;20104;-79
2022/04/24 11:09:31;;;;;;;4.18;1.92;;;;;;;36.86;19.83;96635.25;5092580;28;20452;-80
2022/04/24 11:11:59;;;;;;;6.25;1.70;;;;;;;37.06;18.99;96629.63;5110632;28;20030;-79
2022/04/24 11:14:27;;;;;;;5.00;1.70;;;;;;;37.97;18.77;96634.72;5093107;28;20023;-80
2022/04/24 11:16:56;;;;;;;4.22;1.70;;;;;;;38.57;17.73;96633.38;5110333;28;20032;-80
2022/04/24 11:19:26;;;;;;;4.20;1.95;;;;;;;38.89;17.85;96622.41;5088412;28;20027;-80
2022/04/24 11:22:02;;;;;;;7.07;1.95;;;;;;;39.21;17.83;96618.94;5111965;28;20035;-80
2022/04/24 11:24:32;;;;;;;7.82;1.95;;;;;;;38.32;18.52;96612.06;5106239;28;20061;-80
2022/04/24 11:27:03;;;;;;;7.07;2.28;;;;;;;38.15;18.37;96602.47;5111151;28;20027;-80
2022/04/24 11:29:28;;;;;;;4.70;1.83;;;;;;;37.78;18.87;96598.25;5105658;28;20035;-80
2022/04/24 11:31:55;;;;;;;4.15;1.90;;;;;;;39.02;17.82;96607.69;5111296;28;20033;-81